Time;durP1;ratioP1;P1;durP2;ratioP2;P2;SDS_P1;SDS_P2;PMS_P1;PMS_P2;Temp;Humidity;BMP_temperature;BMP_pressure;BME280_temperature;BME280_humidity;BME280_pressure;Samples;Min_cycle;Max_cycle;Signal;HPM_P1;HPM_P2
2023/01/07 00:00:09;;;;;;;42.55;24.27;;;;;;;;;;6306836;22;20014;-84
2023/01/07 00:02:55;;;;;;;42.80;24.05;;;;;;;;;;6284481;22;20019;-85
2023/01/07 00:05:40;;;;;;;42.05;24.17;;;;;;;;;;6261980;22;20384;-84
2023/01/07 00:08:24;;;;;;;41.97;21.83;;;;;;;;;;6283923;22;20042;-85
2023/01/07 00:11:15;;;;;;;39.25;21.60;;;9.70;99.90;;;;;;6307089;22;20044;-85
2023/01/07 00:14:00;;;;;;;40.63;22.98;;;;;;;;;;6284114;22;20495;-85
2023/01/07 00:16:44;;;;;;;38.63;23.00;;;;;;;;;;6306343;22;20448;-85
2023/01/07 00:19:29;;;;;;;39.45;23.25;;;;;;;;;;6283906;22;20068;-84
2023/01/07 00:22:13;;;;;;;40.40;23.95;;;;;;;;;;6283785;22;20014;-85
2023/01/07 00:24:58;;;;;;;38.88;21.80;;;;;;;;;;6262113;22;20018;-85
2023/01/07 00:27:42;;;;;;;42.28;22.60;;;;;;;;;;6306392;22;20499;-85
2023/01/07 00:30:27;;;;;;;42.00;22.70;;;;;;;;;;6283793;22;20019;-85
2023/01/07 00:33:14;;;;;;;41.45;23.02;;;;;;;;;;6306763;22;20018;-85
2023/01/07 00:35:59;;;;;;;42.90;23.55;;;10.00;99.90;;;;;;6284540;22;20017;-85
2023/01/07 00:38:44;;;;;;;39.85;21.80;;;;;;;;;;6283202;22;20010;-86
2023/01/07 00:41:28;;;;;;;40.58;20.75;;;;;;;;;;6306741;22;20014;-88
2023/01/07 00:44:13;;;;;;;39.78;21.70;;;;;;;;;;6306753;22;20022;-86
2023/01/07 00:46:58;;;;;;;42.10;22.48;;;10.10;99.90;;;;;;6283237;22;20107;-85
2023/01/07 00:49:43;;;;;;;40.25;22.08;;;;;;;;;;6261366;22;20141;-86
2023/01/07 00:52:27;;;;;;;43.80;22.77;;;;;;;;;;6262060;22;20018;-86
2023/01/07 00:55:13;;;;;;;39.75;22.02;;;;;;;;;;6283692;22;20018;-86
2023/01/07 00:57:58;;;;;;;43.40;23.05;;;;;;;;;;6261926;22;20015;-87
2023/01/07 01:00:43;;;;;;;42.78;22.55;;;;;;;;;;6306221;22;20014;-86
2023/01/07 01:03:28;;;;;;;39.88;21.58;;;10.20;99.90;;;;;;6306910;22;20094;-86
2023/01/07 01:06:14;;;;;;;40.83;22.42;;;10.20;99.90;;;;;;6283518;22;20337;-86
2023/01/07 01:08:59;;;;;;;37.25;21.42;;;;;;;;;;6306224;22;20010;-85
2023/01/07 01:11:44;;;;;;;36.05;20.60;;;;;;;;;;6283614;22;20014;-86
2023/01/07 01:14:28;;;;;;;38.83;22.35;;;;;;;;;;6285656;22;20081;-86
2023/01/07 01:17:13;;;;;;;41.60;21.40;;;;;;;;;;6308622;22;20030;-86
2023/01/07 01:19:57;;;;;;;39.42;20.35;;;;;;;;;;6308183;22;20499;-86
2023/01/07 01:22:42;;;;;;;39.25;21.10;;;;;;;;;;6284863;22;20054;-85
2023/01/07 01:25:27;;;;;;;37.15;21.45;;;;;;;;;;6308542;22;20014;-85
2023/01/07 01:28:12;;;;;;;35.75;21.65;;;;;;;;;;6285949;22;20018;-85
2023/01/07 01:30:56;;;;;;;35.72;20.70;;;;;;;;;;6284702;22;20053;-86
2023/01/07 01:33:41;;;;;;;35.90;20.65;;;;;;;;;;6284684;22;20334;-86
2023/01/07 01:36:26;;;;;;;36.72;20.67;;;;;;;;;;6285528;22;20014;-85
2023/01/07 01:39:10;;;;;;;35.33;20.05;;;;;;;;;;6285217;22;20065;-86
2023/01/07 01:41:55;;;;;;;36.92;20.73;;;;;;;;;;6284806;22;20014;-85
2023/01/07 01:44:49;;;;;;;35.83;21.10;;;10.50;99.90;;;;;;6263600;22;20349;-86
2023/01/07 01:48:01;;;;;;;32.58;20.35;;;10.50;99.90;;;;;;6307534;22;20017;-87
2023/01/07 01:50:46;;;;;;;33.30;20.20;;;;;;;;;;6284499;22;20010;-86
2023/01/07 01:53:34;;;;;;;35.42;21.33;;;10.50;99.90;;;;;;6285176;22;20059;-85
2023/01/07 01:56:23;;;;;;;31.77;20.73;;;10.50;99.90;;;;;;6285259;22;20326;-85
2023/01/07 01:59:12;;;;;;;33.45;20.45;;;10.60;99.90;;;;;;6307801;22;20052;-86
2023/01/07 02:01:56;;;;;;;37.42;21.25;;;;;;;;;;6284395;22;20069;-86
2023/01/07 02:04:41;;;;;;;37.75;23.02;;;;;;;;;;6308127;22;20022;-86
2023/01/07 02:07:26;;;;;;;33.72;20.35;;;;;;;;;;6308117;22;20014;-86
2023/01/07 02:10:13;;;;;;;34.92;21.30;;;;;;;;;;6308342;22;20041;-86
2023/01/07 02:13:10;;;;;;;33.67;21.25;;;10.60;99.90;;;;;;6307685;22;20098;-86
2023/01/07 02:16:04;;;;;;;35.53;21.73;;;10.60;99.90;;;;;;6307527;22;20014;-86
2023/01/07 02:19:01;;;;;;;34.05;21.88;;;10.60;99.90;;;;;;6307636;22;20026;-86
2023/01/07 02:21:52;;;;;;;33.95;20.70;;;;;;;;;;6308020;22;20010;-87
2023/01/07 02:25:12;;;;;;;31.85;20.42;;;10.70;99.90;;;;;;6307817;22;20018;-86
2023/01/07 02:27:56;;;;;;;29.85;20.80;;;;;;;;;;6307406;22;20053;-86
2023/01/07 02:30:59;;;;;;;29.50;19.98;;;10.70;99.90;;;;;;6307928;22;20086;-86
2023/01/07 02:33:50;;;;;;;28.67;19.98;;;;;;;;;;6307980;22;20014;-86
2023/01/07 02:36:56;;;;;;;33.67;21.48;;;10.70;99.90;;;;;;6284857;22;20018;-86
2023/01/07 02:39:53;;;;;;;30.33;20.23;;;;;;;;;;6308029;22;20405;-86
2023/01/07 02:42:56;;;;;;;28.13;19.98;;;10.70;99.90;;;;;;6307942;22;20484;-85
2023/01/07 02:46:01;;;;;;;29.33;20.80;;;10.70;99.90;;;;;;6307876;22;20025;-86
2023/01/07 02:48:46;;;;;;;29.70;19.85;;;;;;;;;;6284683;22;20040;-87
2023/01/07 02:51:32;;;;;;;35.28;20.80;;;;;;;;;;6307953;22;20040;-86
2023/01/07 02:54:26;;;;;;;30.15;19.52;;;10.70;99.90;;;;;;6284966;22;20065;-85
2023/01/07 02:57:27;;;;;;;28.35;19.75;;;;;;;;;;6307522;22;20471;-86
2023/01/07 03:00:50;;;;;;;29.13;20.63;;;10.40;99.90;;;;;;6307147;22;20018;-86
2023/01/07 03:03:47;;;;;;;28.38;20.77;;;;;;;;;;6255191;22;20338;-86
2023/01/07 03:06:48;;;;;;;26.20;18.85;;;10.70;99.90;;;;;;6284762;22;20329;-86
2023/01/07 03:09:33;;;;;;;26.13;19.73;;;;;;;;;;6307791;22;20402;-86
2023/01/07 03:12:35;;;;;;;27.02;19.02;;;10.70;99.90;;;;;;6307886;22;20018;-86
2023/01/07 03:15:49;;;;;;;26.98;19.30;;;10.70;99.90;;;;;;6284622;22;20014;-86
2023/01/07 03:18:39;;;;;;;25.48;19.73;;;10.70;99.90;;;;;;6271543;22;20046;-86
2023/01/07 03:21:30;;;;;;;28.23;18.98;;;10.70;99.90;;;;;;6307440;22;20014;-86
2023/01/07 03:24:15;;;;;;;25.50;19.25;;;;;;;;;;6283622;22;20561;-85
2023/01/07 03:27:03;;;;;;;26.52;20.10;;;10.70;99.90;;;;;;6262222;22;20060;-86
2023/01/07 03:29:48;;;;;;;28.42;19.58;;;;;;;;;;6284281;22;20014;-86
2023/01/07 03:32:40;;;;;;;25.60;18.52;;;10.70;99.90;;;;;;6284555;22;20018;-84
2023/01/07 03:35:26;;;;;;;25.08;18.23;;;;;;;;;;6306855;22;20019;-85
2023/01/07 03:38:11;;;;;;;24.45;19.02;;;;;;;;;;6306670;22;20086;-85
2023/01/07 03:40:56;;;;;;;25.10;18.15;;;;;;;;;;6284194;22;20129;-86
2023/01/07 03:43:41;;;;;;;29.30;19.05;;;;;;;;;;6307328;22;20029;-85
2023/01/07 03:46:25;;;;;;;25.95;18.40;;;;;;;;;;6262366;22;20018;-85
2023/01/07 03:49:10;;;;;;;25.73;18.23;;;;;;;;;;6306727;22;20018;-85
2023/01/07 03:51:54;;;;;;;25.77;18.77;;;;;;;;;;6284095;22;20019;-85
2023/01/07 03:54:39;;;;;;;23.73;17.52;;;;;;;;;;6284209;22;20018;-85
2023/01/07 03:57:23;;;;;;;25.95;17.92;;;;;;;;;;6283678;22;20513;-85
2023/01/07 04:00:10;;;;;;;26.23;18.88;;;10.60;99.90;;;;;;6283373;22;20014;-85
2023/01/07 04:02:54;;;;;;;24.55;17.73;;;;;;;;;;6307214;22;20018;-85
2023/01/07 04:05:39;;;;;;;24.67;18.60;;;;;;;;;;6283844;22;20022;-85
2023/01/07 04:08:23;;;;;;;27.25;17.38;;;;;;;;;;6283596;22;20014;-85
2023/01/07 04:11:08;;;;;;;29.63;18.40;;;;;;;;;;6283695;22;20018;-85
2023/01/07 04:13:52;;;;;;;23.85;17.48;;;;;;;;;;6306897;22;20084;-86
2023/01/07 04:16:37;;;;;;;26.35;17.75;;;;;;;;;;6283972;22;20011;-85
2023/01/07 04:19:21;;;;;;;24.75;17.15;;;;;;;;;;6283446;22;20405;-84
2023/01/07 04:22:06;;;;;;;23.33;17.83;;;;;;;;;;6306453;22;20061;-85
2023/01/07 04:24:51;;;;;;;28.00;17.90;;;;;;;;;;6306922;22;20332;-85
2023/01/07 04:27:35;;;;;;;25.80;17.48;;;;;;;;;;6306868;22;20030;-85
2023/01/07 04:30:20;;;;;;;25.92;16.88;;;;;;;;;;6306415;22;20023;-85
2023/01/07 04:33:05;;;;;;;25.65;16.25;;;;;;;;;;6306212;22;20018;-86
2023/01/07 04:35:50;;;;;;;24.05;16.92;;;;;;;;;;6307047;22;20017;-84
2023/01/07 04:38:34;;;;;;;23.63;15.82;;;;;;;;;;6283989;22;20453;-85
2023/01/07 04:41:19;;;;;;;22.13;15.63;;;;;;;;;;6282992;22;20354;-85
2023/01/07 04:44:04;;;;;;;20.45;15.60;;;;;;;;;;6283746;22;20329;-84
2023/01/07 04:46:49;;;;;;;21.73;16.50;;;;;;;;;;6286478;22;20014;-84
2023/01/07 04:49:33;;;;;;;20.88;14.05;;;;;;;;;;6310283;22;20037;-85
2023/01/07 04:52:17;;;;;;;22.90;14.68;;;;;;;;;;6309753;22;20065;-85
2023/01/07 04:55:02;;;;;;;19.17;13.93;;;;;;;;;;6287039;22;20097;-84
2023/01/07 04:57:47;;;;;;;21.48;15.30;;;;;;;;;;6310171;22;20349;-85
2023/01/07 05:00:31;;;;;;;20.73;14.77;;;;;;;;;;6286470;22;20018;-85
2023/01/07 05:03:16;;;;;;;22.80;14.68;;;;;;;;;;6309397;22;20337;-85
2023/01/07 05:06:01;;;;;;;22.55;14.52;;;;;;;;;;6310097;22;20511;-85
2023/01/07 05:08:45;;;;;;;22.50;13.98;;;;;;;;;;6310181;22;20014;-85
2023/01/07 05:11:30;;;;;;;22.20;14.70;;;;;;;;;;6309683;22;20017;-84
2023/01/07 05:14:14;;;;;;;24.95;14.82;;;;;;;;;;6286441;22;20022;-84
2023/01/07 05:16:59;;;;;;;20.83;13.88;;;;;;;;;;6287080;22;20045;-84
2023/01/07 05:19:43;;;;;;;17.27;13.65;;;;;;;;;;6310069;22;20017;-85
2023/01/07 05:22:28;;;;;;;16.08;11.35;;;;;;;;;;6309613;22;20029;-85
2023/01/07 05:25:12;;;;;;;19.35;13.48;;;;;;;;;;6286365;22;20072;-86
2023/01/07 05:27:57;;;;;;;19.08;12.27;;;;;;;;;;6286819;22;20019;-84
2023/01/07 05:30:41;;;;;;;19.95;14.02;;;;;;;;;;6310119;22;20014;-84
2023/01/07 05:33:26;;;;;;;21.70;12.85;;;;;;;;;;6286460;22;20440;-85
2023/01/07 05:36:11;;;;;;;23.30;13.43;;;;;;;;;;6310027;22;20138;-85
2023/01/07 05:38:55;;;;;;;19.60;12.48;;;;;;;;;;6309968;22;20014;-85
2023/01/07 05:41:40;;;;;;;21.05;12.93;;;;;;;;;;6309963;22;20528;-84
2023/01/07 05:44:25;;;;;;;17.83;12.88;;;;;;;;;;6309267;22;20050;-85
2023/01/07 05:47:09;;;;;;;17.77;12.63;;;;;;;;;;6286918;22;20018;-85
2023/01/07 05:49:53;;;;;;;18.60;12.32;;;;;;;;;;6309724;22;20026;-85
2023/01/07 05:52:38;;;;;;;19.45;11.48;;;;;;;;;;6309702;22;20018;-85
2023/01/07 05:55:23;;;;;;;16.80;10.50;;;;;;;;;;6309381;22;20049;-85
2023/01/07 05:58:07;;;;;;;16.70;11.32;;;;;;;;;;6285393;22;20036;-85
2023/01/07 06:00:52;;;;;;;16.25;10.93;;;;;;;;;;6308234;22;20091;-85
2023/01/07 06:03:37;;;;;;;14.40;10.93;;;;;;;;;;6307876;22;20064;-85
2023/01/07 06:06:21;;;;;;;14.32;9.95;;;;;;;;;;6284602;22;20014;-85
2023/01/07 06:09:06;;;;;;;18.92;11.07;;;;;;;;;;6308030;22;20095;-86
2023/01/07 06:11:50;;;;;;;16.88;10.88;;;;;;;;;;6308365;22;20041;-85
2023/01/07 06:14:35;;;;;;;16.33;10.10;;;;;;;;;;6307642;22;20015;-85
2023/01/07 06:17:20;;;;;;;14.13;10.23;;;;;;;;;;6307549;22;20060;-85
2023/01/07 06:20:05;;;;;;;14.93;10.05;;;;;;;;;;6263503;22;20499;-84
2023/01/07 06:22:50;;;;;;;12.85;9.52;;;;;;;;;;6308006;22;20015;-84
2023/01/07 06:25:34;;;;;;;13.70;10.10;;;;;;;;;;6307400;22;20022;-85
2023/01/07 06:28:19;;;;;;;12.70;9.55;;;;;;;;;;6307556;22;20503;-89
2023/01/07 06:31:03;;;;;;;18.17;11.80;;;;;;;;;;6307916;22;20013;-85
2023/01/07 06:33:48;;;;;;;13.00;8.65;;;;;;;;;;6263352;22;20022;-85
2023/01/07 06:36:32;;;;;;;13.93;9.20;;;;;;;;;;6307278;22;20022;-84
2023/01/07 06:39:17;;;;;;;15.45;9.32;;;;;;;;;;6284653;22;20137;-91
2023/01/07 06:42:01;;;;;;;13.02;9.85;;;;;;;;;;6307567;22;20387;-85
2023/01/07 06:44:46;;;;;;;16.67;9.10;;;;;;;;;;6307773;22;20023;-85
2023/01/07 06:47:31;;;;;;;12.38;9.10;;;;;;;;;;6307303;22;20052;-85
2023/01/07 06:50:16;;;;;;;12.38;8.55;;;;;;;;;;6284658;22;20062;-85
2023/01/07 06:53:00;;;;;;;12.27;8.23;;;;;;;;;;6307706;22;20030;-85
2023/01/07 06:55:48;;;;;;;13.98;8.98;;;;;;;;;;6307254;22;20014;-85
2023/01/07 06:58:33;;;;;;;15.02;8.60;;;;;;;;;;6307196;22;20022;-85
2023/01/07 07:01:17;;;;;;;14.73;8.23;;;;;;;;;;6263018;22;20042;-85
2023/01/07 07:04:02;;;;;;;13.13;8.10;;;;;;;;;;6307729;22;20077;-85
2023/01/07 07:06:47;;;;;;;9.88;7.57;;;;;;;;;;6307172;22;20050;-85
2023/01/07 07:09:32;;;;;;;40.67;9.13;;;;;;;;;;6306529;22;20022;-85
2023/01/07 07:12:18;;;;;;;12.93;7.90;;;;;;;;;;6262762;22;20132;-86
2023/01/07 07:15:03;;;;;;;12.68;8.23;;;;;;;;;;6307510;22;20018;-84
2023/01/07 07:17:48;;;;;;;11.23;7.75;;;;;;;;;;6307010;22;20064;-85
2023/01/07 07:20:33;;;;;;;15.82;8.07;;;;;;;;;;6306976;22;20011;-85
2023/01/07 07:23:18;;;;;;;13.57;7.82;;;;;;;;;;6283710;22;20123;-85
2023/01/07 07:26:02;;;;;;;12.50;8.55;;;;;;;;;;6284376;22;20054;-85
2023/01/07 07:28:47;;;;;;;11.80;8.25;;;;;;;;;;6307049;22;20448;-85
2023/01/07 07:31:32;;;;;;;11.43;7.25;;;;;;;;;;6306191;22;20091;-85
2023/01/07 07:34:17;;;;;;;13.30;7.82;;;;;;;;;;6284004;22;20021;-85
2023/01/07 07:37:01;;;;;;;10.10;7.13;;;;;;;;;;6284305;22;20029;-85
2023/01/07 07:39:46;;;;;;;10.60;6.93;;;;;;;;;;6283566;22;20339;-85
2023/01/07 07:42:30;;;;;;;10.38;7.65;;;;;;;;;;6283727;22;20022;-84
2023/01/07 07:45:15;;;;;;;12.00;7.13;;;;;;;;;;6307089;22;20038;-84
2023/01/07 07:47:59;;;;;;;12.82;6.80;;;;;;;;;;6284131;22;20486;-84
2023/01/07 07:50:44;;;;;;;14.05;6.70;;;;;;;;;;6283711;22;20088;-85
2023/01/07 07:53:28;;;;;;;9.50;6.80;;;;;;;;;;6283928;22;20490;-84
2023/01/07 07:56:13;;;;;;;10.32;7.28;;;;;;;;;;6283994;22;20088;-85
2023/01/07 07:58:58;;;;;;;9.73;6.30;;;;;;;;;;6306772;22;20014;-85
2023/01/07 08:01:42;;;;;;;8.02;6.07;;;;;;;;;;6261562;22;20018;-85
2023/01/07 08:04:27;;;;;;;9.93;7.05;;;;;;;;;;6283846;22;20349;-85
2023/01/07 08:07:12;;;;;;;9.85;5.97;;;;;;;;;;6262416;22;20399;-84
2023/01/07 08:09:56;;;;;;;11.68;5.97;;;;;;;;;;6307137;22;20056;-87
2023/01/07 08:12:41;;;;;;;11.25;5.82;;;;;;;;;;6306473;22;20030;-85
2023/01/07 08:15:26;;;;;;;12.65;6.07;;;;;;;;;;6283564;22;20464;-85
2023/01/07 08:18:10;;;;;;;8.50;5.90;;;;;;;;;;6306789;22;20207;-83
2023/01/07 08:20:55;;;;;;;9.10;6.00;;;;;;;;;;6306220;22;20388;-85
2023/01/07 08:23:39;;;;;;;13.00;5.70;;;;;;;;;;6306464;22;20025;-85
2023/01/07 08:26:24;;;;;;;8.73;4.88;;;;;;;;;;6283618;22;20440;-85
2023/01/07 08:29:09;;;;;;;7.35;5.78;;;;;;;;;;6306772;22;20057;-85
2023/01/07 08:31:53;;;;;;;8.77;5.50;;;;;;;;;;6306162;22;20018;-85
2023/01/07 08:34:38;;;;;;;9.45;4.82;;;;;;;;;;6306380;22;20018;-86
2023/01/07 08:37:22;;;;;;;10.00;5.50;;;;;;;;;;6304020;22;20095;-86
2023/01/07 08:40:07;;;;;;;8.45;5.40;;;;;;;;;;6310593;22;20013;-85
2023/01/07 08:42:52;;;;;;;11.07;5.18;;;;;;;;;;6305467;22;20073;-85
2023/01/07 08:45:37;;;;;;;8.52;5.22;;;;;;;;;;6283154;22;20060;-89
2023/01/07 08:48:22;;;;;;;7.65;4.53;;;;;;;;;;6306449;22;20040;-84
2023/01/07 08:51:06;;;;;;;8.40;5.00;;;;;;;;;;6282549;22;20009;-84
2023/01/07 08:53:51;;;;;;;6.78;4.07;;;;;;;;;;6282492;22;20092;-84
2023/01/07 08:56:36;;;;;;;6.68;4.68;;;;;;;;;;6283187;22;20007;-86
2023/01/07 08:59:20;;;;;;;6.35;4.53;;;;;;;;;;6281089;22;20456;-85
2023/01/07 09:02:05;;;;;;;10.48;4.45;;;;;;;;;;6306211;22;20100;-84
2023/01/07 09:04:49;;;;;;;6.80;4.13;;;;;;;;;;6283074;22;20068;-85
2023/01/07 09:07:34;;;;;;;8.07;4.22;;;;;;;;;;6306525;22;20140;-84
2023/01/07 09:10:18;;;;;;;8.10;4.20;;;;;;;;;;6306674;22;20022;-84
2023/01/07 09:13:03;;;;;;;8.15;4.68;;;;;;;;;;6283251;22;20064;-84
2023/01/07 09:15:48;;;;;;;9.40;4.78;;;;;;;;;;6282967;22;20014;-84
2023/01/07 09:18:32;;;;;;;9.30;4.03;;;;;;;;;;6283595;22;20073;-84
2023/01/07 09:21:17;;;;;;;5.00;3.72;;;;;;;;;;6306616;22;20018;-84
2023/01/07 09:24:02;;;;;;;8.43;4.00;;;;;;;;;;6305897;22;20388;-84
2023/01/07 09:26:46;;;;;;;6.90;4.30;;;;;;;;;;6306148;22;20062;-84
2023/01/07 09:29:31;;;;;;;7.55;4.65;;;;;;;;;;6306692;22;20043;-84
2023/01/07 09:32:15;;;;;;;9.20;4.07;;;;;;;;;;6306838;22;20014;-84
2023/01/07 09:34:59;;;;;;;6.70;4.05;;;;;;;;;;6308029;22;20069;-84
2023/01/07 09:37:44;;;;;;;9.13;4.32;;;;;;;;;;6308147;22;20070;-92
2023/01/07 09:40:34;;;;;;;7.00;4.38;;;;;;;;;;6308638;22;20618;-84
2023/01/07 09:43:27;;;;;;;7.95;4.03;;;;;;;;;;6308227;22;20015;-84
2023/01/07 09:46:12;;;;;;;6.38;4.30;;;;;;;;;;6308254;22;20095;-84
2023/01/07 09:49:00;;;;;;;7.70;4.30;;;10.00;99.90;;;;;;6284799;22;20015;-84
2023/01/07 09:51:54;;;;;;;6.97;4.13;;;10.10;99.90;;;;;;6285090;22;20014;-84
2023/01/07 09:54:39;;;;;;;6.32;4.07;;;;;;;;;;6308598;22;20456;-84
2023/01/07 09:57:25;;;;;;;6.35;3.50;;;;;;;;;;6285136;22;20084;-84
2023/01/07 10:00:15;;;;;;;5.63;3.80;;;10.10;99.90;;;;;;6308329;22;20085;-84
2023/01/07 10:03:06;;;;;;;4.75;3.60;;;;;;;;;;6307642;22;20064;-84
2023/01/07 10:06:06;;;;;;;4.45;3.08;;;10.20;99.90;;;;;;6307733;22;20022;-84
2023/01/07 10:09:12;;;;;;;6.22;3.95;;;10.10;99.90;;;;;;6307809;22;20065;-85
2023/01/07 10:12:17;;;;;;;5.32;3.63;;;10.10;99.90;;;;;;6307845;22;20025;-84
2023/01/07 10:15:21;;;;;;;4.28;3.47;;;10.10;99.90;;;;;;6307710;22;20014;-85
2023/01/07 10:18:18;;;;;;;6.20;3.58;;;10.80;99.90;;;;;;6307701;22;20056;-84
2023/01/07 10:21:23;;;;;;;6.13;3.63;;;10.20;99.90;;;;;;6307591;22;20379;-84
2023/01/07 10:24:23;;;;;;;5.22;3.22;;;10.20;99.90;;;;;;6307371;22;20014;-84
2023/01/07 10:27:11;;;;;;;4.95;3.42;;;10.20;99.90;;;;;;6307575;22;20030;-84
2023/01/07 10:30:00;;;;;;;6.05;3.53;;;10.20;99.90;;;;;;6284467;22;20010;-84
2023/01/07 10:32:45;;;;;;;7.63;3.28;;;;;;;;;;6308060;22;20010;-84
2023/01/07 10:35:32;;;;;;;8.40;4.10;;;;;;;;;;6285136;22;20065;-84
2023/01/07 10:38:20;;;;;;;6.20;2.85;;;;;;;;;;6307841;22;20394;-84
2023/01/07 10:41:50;;;;;;;6.18;3.00;;;10.40;99.90;;;;;;6307299;22;20021;-84
2023/01/07 10:44:53;;;;;;;4.78;2.95;;;10.40;99.90;;;;;;6284178;22;20026;-85
2023/01/07 10:47:50;;;;;;;6.95;3.00;;;10.50;99.90;;;;;;6307857;22;20042;-84
2023/01/07 10:50:50;;;;;;;4.68;2.83;;;10.50;99.90;;;;;;6307801;22;20337;-84
2023/01/07 10:53:41;;;;;;;4.55;2.80;;;;;;;;;;6307717;22;20050;-84
2023/01/07 10:56:26;;;;;;;3.40;2.47;;;;;;;;;;6307743;22;20045;-84
2023/01/07 10:59:19;;;;;;;4.20;2.95;;;10.60;99.90;;;;;;6284021;22;20448;-84
2023/01/07 11:02:04;;;;;;;4.07;2.38;;;;;;;;;;6307022;22;20041;-84
2023/01/07 11:04:49;;;;;;;4.40;2.58;;;;;;;;;;6307795;22;20057;-84
2023/01/07 11:07:45;;;;;;;3.42;1.95;;;10.70;99.90;;;;;;6284311;22;20034;-84
2023/01/07 11:10:35;;;;;;;3.83;2.20;;;10.70;99.90;;;;;;6307676;22;20060;-84
2023/01/07 11:13:22;;;;;;;3.88;2.00;;;;;;;;;;6307185;22;20010;-84
2023/01/07 11:16:09;;;;;;;4.00;2.33;;;10.80;99.90;;;;;;6307018;22;20010;-84
2023/01/07 11:19:04;;;;;;;3.88;2.10;;;;;;;;;;6307447;22;20108;-85
2023/01/07 11:21:50;;;;;;;3.40;2.20;;;;;;;;;;6307713;22;20014;-84
2023/01/07 11:24:35;;;;;;;4.22;1.90;;;;;;;;;;6284810;22;20018;-84
2023/01/07 11:27:21;;;;;;;5.55;2.10;;;;;;;;;;6307313;22;20068;-83
2023/01/07 11:30:23;;;;;;;3.40;2.00;;;;;;;;;;6306921;22;20010;-84
2023/01/07 11:33:16;;;;;;;7.45;2.55;;;;;;;;;;6306828;22;20010;-84
2023/01/07 11:36:01;;;;;;;4.28;2.00;;;;;;;;;;6283749;22;20081;-85
2023/01/07 11:38:46;;;;;;;4.15;1.85;;;;;;;;;;6284233;22;20453;-84
2023/01/07 11:41:31;;;;;;;4.38;1.92;;;;;;;;;;6307340;22;20037;-84
2023/01/07 11:44:16;;;;;;;4.53;2.10;;;;;;;;;;6283659;22;20346;-84
2023/01/07 11:47:00;;;;;;;4.75;2.42;;;;;;;;;;6283708;22;20081;-87
2023/01/07 11:49:45;;;;;;;4.63;2.20;;;;;;;;;;6307162;22;20014;-84
2023/01/07 11:52:31;;;;;;;3.38;1.75;;;11.00;99.90;;;;;;6307444;22;20038;-83
2023/01/07 11:55:18;;;;;;;3.83;2.20;;;11.00;99.90;;;;;;6306162;22;20018;-84
2023/01/07 11:58:05;;;;;;;3.80;2.00;;;;;;;;;;6283565;22;20025;-85
2023/01/07 12:01:04;;;;;;;3.55;1.90;;;;;;;;;;6307076;22;20015;-84
2023/01/07 12:03:52;;;;;;;3.95;2.00;;;;;;;;;;6283863;22;20341;-84
2023/01/07 12:06:38;;;;;;;4.65;2.00;;;11.10;99.90;;;;;;6307150;22;20495;-84
2023/01/07 12:09:23;;;;;;;4.10;2.15;;;;;;;;;;6306556;22;20018;-84
2023/01/07 12:12:35;;;;;;;3.58;1.80;;;11.10;99.90;;;;;;6306507;22;20342;-84
2023/01/07 12:15:29;;;;;;;3.70;2.08;;;11.10;99.90;;;;;;6283533;22;20384;-84
2023/01/07 12:18:50;;;;;;;4.72;2.08;;;11.10;99.90;;;;;;6283485;22;20012;-84
2023/01/07 12:21:58;;;;;;;3.10;1.70;;;11.10;99.90;;;;;;6283867;22;20014;-84
2023/01/07 12:25:05;;;;;;;3.38;1.70;;;11.10;99.90;;;;;;6306879;22;20345;-84
2023/01/07 12:28:18;;;;;;;3.83;2.05;;;11.20;99.90;;;;;;6263786;22;20010;-84
2023/01/07 12:31:17;;;;;;;3.67;1.63;;;11.20;99.90;;;;;;6283494;22;20015;-84
2023/01/07 12:34:08;;;;;;;3.35;1.80;;;;;;;;;;6283852;22;20014;-84
2023/01/07 12:37:02;;;;;;;2.90;1.67;;;11.20;99.90;;;;;;6283944;22;20072;-84
2023/01/07 12:39:50;;;;;;;;;;;11.20;99.90;;;;;;6284454;22;20013;-84
2023/01/07 12:42:39;;;;;;;3.20;1.55;;;11.20;99.90;;;;;;6306953;22;20283;-84
2023/01/07 12:45:32;;;;;;;3.50;1.60;;;11.20;99.90;;;;;;6306466;22;20049;-85
2023/01/07 12:48:20;;;;;;;2.90;1.70;;;;;;;;;;6283455;22;20046;-84
2023/01/07 12:51:13;;;;;;;3.80;1.70;;;11.20;99.90;;;;;;6283835;22;20057;-88
2023/01/07 12:54:11;;;;;;;3.03;1.52;;;11.20;99.90;;;;;;6306794;22;20045;-84
2023/01/07 12:57:02;;;;;;;4.72;1.67;;;11.20;99.90;;;;;;6283666;22;20014;-84
2023/01/07 12:59:55;;;;;;;4.25;2.17;;;11.20;99.90;;;;;;6307072;22;20013;-85
2023/01/07 13:02:53;;;;;;;5.53;2.05;;;11.20;99.90;;;;;;6306353;22;20018;-84
2023/01/07 13:05:46;;;;;;;2.67;1.55;;;;;;;;;;6306628;22;20025;-85
2023/01/07 13:08:44;;;;;;;2.75;1.70;;;11.20;99.90;;;;;;6308433;22;20013;-84
2023/01/07 13:14:47;;;;;;;3.80;1.95;;;;;;;;;;6308804;22;20333;-84
2023/01/07 13:17:31;;;;;;;4.13;1.67;;;;;;;;;;6308254;22;20091;-84
2023/01/07 13:20:21;;;;;;;3.53;1.60;;;;;;;;;;6285196;22;20037;-84
2023/01/07 13:23:10;;;;;;;3.50;2.03;;;11.20;99.90;;;;;;6285639;22;20030;-85
2023/01/07 13:26:16;;;;;;;3.47;1.30;;;11.20;99.90;;;;;;6308656;22;20089;-84
2023/01/07 13:29:12;;;;;;;2.53;1.52;;;;;;;;;;6285559;22;20017;-84
2023/01/07 13:31:56;;;;;;;3.33;1.65;;;;;;;;;;6285685;22;20056;-84
2023/01/07 13:34:53;;;;;;;4.10;1.80;;;;;;;;;;6285504;22;20018;-84
2023/01/07 13:38:00;;;;;;;3.72;1.60;;;11.20;99.90;;;;;;6308764;22;20052;-85
2023/01/07 13:40:59;;;;;;;2.80;1.70;;;;;;;;;;6285536;22;20060;-84
2023/01/07 13:44:21;;;;;;;3.95;1.60;;;11.20;99.90;;;;;;6308455;22;20038;-84
2023/01/07 13:47:10;;;;;;;3.58;1.60;;;11.20;99.90;;;;;;6285491;22;20014;-86
2023/01/07 13:50:00;;;;;;;3.58;1.50;;;11.10;99.90;;;;;;6308454;22;20109;-84
2023/01/07 13:52:55;;;;;;;4.43;1.90;;;11.20;99.90;;;;;;6308661;22;20014;-85
2023/01/07 13:55:41;;;;;;;2.95;1.70;;;11.10;99.90;;;;;;6307918;22;20137;-85
2023/01/07 13:58:25;;;;;;;3.47;2.25;;;;;;;;;;6284739;22;20064;-85
2023/01/07 14:01:18;;;;;;;3.28;1.95;;;11.00;99.90;;;;;;6285268;22;20010;-85
2023/01/07 14:04:05;;;;;;;4.43;1.95;;;11.00;99.90;;;;;;6307788;22;20018;-86
2023/01/07 14:06:51;;;;;;;4.40;2.22;;;11.00;99.90;;;;;;6308443;22;20064;-85
2023/01/07 14:09:36;;;;;;;4.90;2.15;;;11.00;99.90;;;;;;6307757;22;20018;-85
2023/01/07 14:12:55;;;;;;;2.67;1.98;;;11.00;99.90;;;;;;6307694;22;20083;-86
2023/01/07 14:15:59;;;;;;;4.53;1.95;;;11.00;99.90;;;;;;6307707;22;20038;-86
2023/01/07 14:18:52;;;;;;;3.65;2.05;;;;;;;;;;6307792;22;20057;-85
2023/01/07 14:21:46;;;;;;;4.65;1.88;;;10.90;99.90;;;;;;6284480;22;20026;-85
2023/01/07 14:24:49;;;;;;;;;;;10.90;99.90;;;;;;6284646;22;20026;-85
2023/01/07 14:27:46;;;;;;;3.67;2.13;;;;;;;;;;6307568;22;20366;-86
2023/01/07 14:30:43;;;;;;;3.70;2.08;;;;;;;;;;6307397;22;20095;-85
2023/01/07 14:33:33;;;;;;;5.32;2.20;;;;;;;;;;6307501;22;20014;-85
2023/01/07 14:36:17;;;;;;;3.50;2.13;;;;;;;;;;6307954;22;20017;-86
2023/01/07 14:39:02;;;;;;;4.18;2.30;;;;;;;;;;6284801;22;20092;-85
2023/01/07 14:42:18;;;;;;;4.72;3.13;;;10.70;99.90;;;;;;6285013;22;20094;-86
2023/01/07 14:45:40;;;;;;;5.03;2.80;;;10.70;99.90;;;;;;6273599;22;20018;-85
2023/01/07 14:48:32;;;;;;;5.47;2.55;;;;;;;;;;6284144;22;20057;-85
2023/01/07 14:51:27;;;;;;;5.72;3.10;;;;;;;;;;6307718;22;20077;-86
2023/01/07 14:54:30;;;;;;;6.53;2.50;;;;;;;;;;6284626;22;20053;-86
2023/01/07 14:57:17;;;;;;;4.63;2.40;;;;;;;;;;6307599;22;20010;-86
2023/01/07 15:00:02;;;;;;;6.22;2.83;;;;;;;;;;6284747;22;20329;-86
2023/01/07 15:02:47;;;;;;;4.18;2.25;;;;;;;;;;6284123;22;20022;-85
2023/01/07 15:05:50;;;;;;;3.50;2.03;;;10.40;99.90;;;;;;6307016;22;20022;-85
2023/01/07 15:18:14;;;;;;;4.65;2.33;;;;;;;;;;6307750;22;20380;-86
2023/01/07 15:21:14;;;;;;;5.30;2.33;;;;;;;;;;6284284;22;20010;-86
2023/01/07 15:23:59;;;;;;;5.35;2.08;;;;;;;;;;6307569;22;20022;-86
2023/01/07 15:26:59;;;;;;;3.97;2.30;;;;;;;;;;6307010;22;20010;-85
2023/01/07 15:30:01;;;;;;;3.70;1.85;;;;;;;;;;6306533;22;20010;-85
2023/01/07 15:32:49;;;;;;;4.38;2.28;;;10.10;99.90;;;;;;6306898;22;20437;-86
2023/01/07 15:35:39;;;;;;;3.67;2.10;;;10.10;99.90;;;;;;6307027;22;20058;-86
2023/01/07 15:38:46;;;;;;;3.83;2.33;;;10.10;99.90;;;;;;6307457;22;20443;-86
2023/01/07 15:41:41;;;;;;;4.47;2.22;;;10.10;99.90;;;;;;6283051;22;20100;-87
2023/01/07 15:44:33;;;;;;;3.22;2.22;;;10.00;99.90;;;;;;6308317;22;20026;-85
2023/01/07 15:47:39;;;;;;;4.05;2.30;;;;;;;;;;6307255;22;20014;-86
2023/01/07 15:50:24;;;;;;;3.67;2.30;;;;;;;;;;6285054;22;20041;-85
2023/01/07 15:53:11;;;;;;;3.75;2.40;;;10.00;99.90;;;;;;6307151;22;20014;-86
2023/01/07 15:56:04;;;;;;;5.55;2.70;;;9.90;99.90;;;;;;6307891;22;20337;-86
2023/01/07 15:58:49;;;;;;;3.83;2.33;;;;;;;;;;6307852;22;20052;-86
2023/01/07 16:01:33;;;;;;;4.53;2.40;;;;;;;;;;6306599;22;20038;-87
2023/01/07 16:04:26;;;;;;;5.15;3.22;;;;;;;;;;6284193;22;20023;-85
2023/01/07 16:07:20;;;;;;;5.40;2.88;;;;;;;;;;6307141;22;20064;-85
2023/01/07 16:10:06;;;;;;;3.83;2.70;;;;;;;;;;6307211;22;20376;-86
2023/01/07 16:12:57;;;;;;;4.70;2.60;;;;;;;;;;6283479;22;20010;-86